Time;durP1;ratioP1;P1;durP2;ratioP2;P2;SDS_P1;SDS_P2;PMS_P1;PMS_P2;Temp;Humidity;BMP_temperature;BMP_pressure;BME280_temperature;BME280_humidity;BME280_pressure;Samples;Min_cycle;Max_cycle;Signal;HPM_P1;HPM_P2
2022/05/20 00:00:33;;;;;;;4.68;2.10;;;;;;;22.56;83.79;100465.38;4974469;28;20042;-68
2022/05/20 00:02:59;;;;;;;5.90;2.15;;;;;;;22.49;83.79;100472.19;4974349;28;20533;-67
2022/05/20 00:05:26;;;;;;;4.97;2.20;;;;;;;22.43;84.08;100469.06;4974059;28;20102;-69
2022/05/20 00:07:52;;;;;;;4.82;1.80;;;;;;;22.21;84.74;100456.22;4977058;28;20544;-68
2022/05/20 00:10:18;;;;;;;4.43;1.98;;;;;;;22.24;85.19;100472.25;4974563;28;20039;-67
2022/05/20 00:12:45;;;;;;;4.43;2.05;;;;;;;22.23;84.85;100467.81;4970345;28;20101;-67
2022/05/20 00:15:14;;;;;;;3.80;1.80;;;;;;;22.23;84.04;100465.09;4954837;28;20057;-67
2022/05/20 00:17:40;;;;;;;2.97;1.90;;;;;;;22.16;84.49;100462.00;4960533;28;20491;-68
2022/05/20 00:20:07;;;;;;;4.43;2.17;;;;;;;22.06;85.04;100450.09;4951914;29;20126;-72
2022/05/20 00:22:32;;;;;;;5.03;2.22;;;;;;;22.00;85.97;100452.38;4951488;29;20130;-71
2022/05/20 00:27:42;;;;;;;5.63;1.80;;;;;;;21.84;86.21;100443.63;4971555;28;20037;-69
2022/05/20 00:30:08;;;;;;;2.85;1.60;;;;;;;21.81;87.43;100451.97;4972223;28;20038;-72
2022/05/20 00:32:34;;;;;;;6.30;2.42;;;;;;;21.76;87.32;100462.25;4954750;28;20026;-70
2022/05/20 00:34:59;;;;;;;6.88;2.00;;;;;;;21.65;87.75;100444.03;4972635;28;20077;-70
2022/05/20 00:37:25;;;;;;;5.05;2.20;;;;;;;21.53;87.64;100438.63;4973926;28;20093;-70
2022/05/20 00:39:50;;;;;;;5.32;2.63;;;;;;;21.47;89.21;100436.34;4974055;28;20014;-69
2022/05/20 00:42:18;;;;;;;5.22;2.28;;;;;;;21.44;89.35;100455.50;4975921;28;20042;-69
2022/05/20 00:44:44;;;;;;;4.38;2.20;;;;;;;21.42;89.52;100452.03;4973491;28;20394;-69
2022/05/20 00:47:12;;;;;;;4.55;2.03;;;;;;;21.38;89.24;100435.19;4973542;28;20051;-69
2022/05/20 00:49:40;;;;;;;4.63;2.20;;;;;;;21.35;90.14;100442.66;4975852;28;20041;-69
2022/05/20 00:52:10;;;;;;;4.65;1.90;;;;;;;21.26;91.31;100445.97;4973781;28;20039;-70
2022/05/20 00:54:39;;;;;;;4.55;2.22;;;;;;;21.24;91.48;100437.09;4973418;28;20081;-69
2022/05/20 00:57:10;;;;;;;4.95;2.17;;;;;;;21.26;91.11;100445.97;4973283;28;20031;-68
2022/05/20 00:59:40;;;;;;;4.07;2.20;;;;;;;21.21;91.00;100438.19;4973187;28;20026;-68
2022/05/20 01:02:19;;;;;;;5.07;1.80;;;;;;;21.17;91.41;100442.06;4956320;28;20058;-69
2022/05/20 01:04:45;;;;;;;4.55;1.98;;;;;;;21.10;92.18;100439.91;4973419;28;20514;-69
2022/05/20 01:07:12;;;;;;;5.22;1.90;;;;;;;21.03;92.62;100444.00;4955819;28;20109;-69
2022/05/20 01:09:39;;;;;;;4.75;2.05;;;;;;;20.92;93.03;100447.41;4971594;28;20490;-70
2022/05/20 01:12:05;;;;;;;5.38;2.15;;;;;;;20.86;92.86;100443.28;4973474;28;20054;-68
2022/05/20 01:14:31;;;;;;;7.20;2.30;;;;;;;20.77;92.75;100433.06;4973109;28;20483;-68
2022/05/20 01:16:57;;;;;;;2.70;1.70;;;;;;;20.73;93.51;100434.25;4973157;28;20081;-70
2022/05/20 01:19:39;;;;;;;4.45;1.70;;;;;;;20.72;94.18;100445.19;4973112;28;20058;-70
2022/05/20 01:22:07;;;;;;;4.15;2.17;;;;;;;20.63;94.35;100435.84;4973521;28;20077;-70
2022/05/20 01:24:33;;;;;;;5.07;2.35;;;;;;;20.65;94.75;100436.63;4972782;28;20034;-70
2022/05/20 01:26:59;;;;;;;4.68;2.80;;;;;;;20.60;95.73;100444.16;4955557;28;20114;-70
2022/05/20 01:29:25;;;;;;;6.00;2.50;;;;;;;20.54;96.27;100441.84;4972885;28;20109;-69
2022/05/20 01:31:50;;;;;;;3.85;2.10;;;;;;;20.42;96.83;100431.88;4973009;28;20057;-69
2022/05/20 01:34:16;;;;;;;4.10;1.98;;;;;;;20.48;97.04;100436.88;4972761;28;20454;-68
2022/05/20 01:36:41;;;;;;;5.85;2.35;;;;;;;20.45;97.10;100431.66;4971231;28;20037;-70
2022/05/20 01:39:07;;;;;;;5.28;2.38;;;;;;;20.43;97.44;100446.25;4972886;28;20049;-69
2022/05/20 01:41:51;;;;;;;3.72;2.10;;;;;;;20.31;98.14;100420.91;4972699;28;20494;-69
2022/05/20 01:44:32;;;;;;;5.97;2.25;;;;;;;20.34;98.74;100436.06;4971400;28;20026;-69
2022/05/20 01:47:20;;;;;;;4.22;2.00;;;;;;;20.28;98.70;100440.00;4972342;28;20054;-69
2022/05/20 01:50:00;;;;;;;3.85;2.15;;;;;;;20.24;99.31;100438.50;4972415;28;20030;-69
2022/05/20 01:52:54;;;;;;;4.05;2.08;;;;;;;20.22;99.84;100448.53;4972835;28;20471;-69
2022/05/20 01:55:58;;;;;;;3.95;2.45;;;;;;;20.20;100.00;100444.19;4970538;28;20058;-69
2022/05/20 01:58:29;;;;;;;5.03;2.40;;;;;;;20.18;100.00;100443.44;4928737;28;20531;-70
2022/05/20 02:00:59;;;;;;;4.53;2.45;;;;;;;20.12;100.00;100433.84;4970562;28;20162;-70
2022/05/20 02:03:41;;;;;;;4.63;2.47;;;;;;;20.13;100.00;100443.69;4968643;28;20245;-70
2022/05/20 02:06:16;;;;;;;4.60;2.33;;;;;;;20.19;100.00;100446.03;4967770;28;20035;-69
2022/05/20 02:08:44;;;;;;;3.50;2.25;;;;;;;20.25;100.00;100439.34;4967689;28;20034;-70
2022/05/20 02:11:22;;;;;;;5.95;2.20;;;;;;;20.21;100.00;100432.44;4968288;28;20104;-70
2022/05/20 02:14:05;;;;;;;5.30;2.40;;;;;;;20.31;100.00;100441.66;4970556;28;20489;-70
2022/05/20 02:16:39;;;;;;;4.97;2.60;;;;;;;20.32;100.00;100433.47;4968788;28;20093;-70
2022/05/20 02:19:19;;;;;;;5.97;2.70;;;;;;;20.33;100.00;100428.94;4953013;29;20031;-69
2022/05/20 02:21:53;;;;;;;6.80;2.80;;;;;;;20.21;100.00;100430.59;4951551;29;20019;-69
2022/05/20 02:24:22;;;;;;;5.22;2.47;;;;;;;20.18;100.00;100428.06;4963132;28;20019;-69
2022/05/20 02:26:53;;;;;;;6.88;2.50;;;;;;;20.15;100.00;100432.81;4972092;28;20023;-69
2022/05/20 02:29:26;;;;;;;5.65;3.42;;;;;;;20.13;100.00;100434.72;4970985;28;20118;-70
2022/05/20 02:32:06;;;;;;;4.85;2.70;;;;;;;20.03;100.00;100439.84;4971941;28;20109;-70
2022/05/20 02:34:34;;;;;;;4.60;2.47;;;;;;;19.91;100.00;100423.56;4972567;28;20030;-69
2022/05/20 02:37:20;;;;;;;5.43;3.05;;;;;;;19.85;100.00;100426.66;4970515;28;20438;-69
2022/05/20 02:39:46;;;;;;;5.60;2.70;;;;;;;19.86;100.00;100431.97;4961362;28;20138;-69
2022/05/20 02:42:11;;;;;;;4.82;2.72;;;;;;;19.90;100.00;100428.09;4974245;28;20109;-70
2022/05/20 02:44:36;;;;;;;5.70;2.80;;;;;;;19.90;100.00;100411.03;4971976;28;20027;-70
2022/05/20 02:47:03;;;;;;;5.40;2.75;;;;;;;19.98;100.00;100425.78;4956875;28;20112;-69
2022/05/20 02:49:29;;;;;;;7.40;3.10;;;;;;;20.01;100.00;100431.00;4971892;28;20027;-69
2022/05/20 02:51:54;;;;;;;3.97;2.40;;;;;;;19.97;100.00;100433.97;4970282;28;20072;-70
2022/05/20 02:54:20;;;;;;;4.35;2.53;;;;;;;19.85;100.00;100443.72;4971861;28;20034;-69
2022/05/20 02:56:45;;;;;;;4.78;2.95;;;;;;;19.74;100.00;100448.94;4971987;28;20394;-69
2022/05/20 03:04:40;;;;;;;4.75;3.10;;;;;;;19.50;100.00;100426.19;4972512;28;20223;-70
2022/05/20 03:07:06;;;;;;;4.47;3.08;;;;;;;19.45;100.00;100425.63;4975571;28;20023;-70
2022/05/20 03:09:31;;;;;;;5.20;3.03;;;;;;;19.52;100.00;100433.22;4975440;28;20026;-70
2022/05/20 03:11:57;;;;;;;4.57;2.67;;;;;;;19.49;100.00;100440.63;4975342;28;20034;-69
2022/05/20 03:14:24;;;;;;;5.15;3.08;;;;;;;19.45;100.00;100437.28;4975437;28;20023;-69
2022/05/20 03:16:50;;;;;;;8.23;3.03;;;;;;;19.30;100.00;100415.78;4975093;28;20479;-69
2022/05/20 03:19:16;;;;;;;5.25;3.45;;;;;;;19.43;100.00;100433.81;4957713;28;20035;-69
2022/05/20 03:21:42;;;;;;;8.00;3.40;;;;;;;19.34;100.00;100434.38;4972073;28;20027;-69
2022/05/20 03:24:09;;;;;;;8.52;3.45;;;;;;;19.37;100.00;100433.31;4972047;28;20382;-69
2022/05/20 03:26:35;;;;;;;5.40;2.97;;;;;;;19.28;100.00;100412.25;4970304;28;20033;-70
2022/05/20 03:29:03;;;;;;;4.28;2.80;;;;;;;19.33;100.00;100429.06;4970868;28;20045;-70
2022/05/20 03:31:29;;;;;;;7.45;3.45;;;;;;;19.28;100.00;100417.66;4969827;28;20053;-70
2022/05/20 03:33:55;;;;;;;4.85;2.55;;;;;;;19.30;100.00;100430.13;4954481;28;20528;-70
2022/05/20 03:36:21;;;;;;;5.20;3.05;;;;;;;19.27;100.00;100438.41;4972790;28;20101;-69
2022/05/20 03:38:47;;;;;;;6.32;3.63;;;;;;;19.29;100.00;100427.53;4973028;28;20054;-69
2022/05/20 03:41:13;;;;;;;5.65;2.88;;;;;;;19.28;100.00;100434.72;4974346;28;20533;-70
2022/05/20 03:43:39;;;;;;;5.95;3.05;;;;;;;19.23;100.00;100431.44;4973576;28;20122;-70
2022/05/20 03:46:04;;;;;;;6.00;3.25;;;;;;;19.27;100.00;100443.78;4974705;28;20031;-70
2022/05/20 03:48:30;;;;;;;5.07;2.92;;;;;;;19.27;100.00;100443.78;4973811;28;20058;-70
2022/05/20 03:50:56;;;;;;;6.63;3.38;;;;;;;19.23;100.00;100435.94;4973417;28;20034;-70
2022/05/20 03:53:21;;;;;;;6.25;3.20;;;;;;;19.24;100.00;100443.94;4973181;28;20516;-71
2022/05/20 03:55:46;;;;;;;7.45;3.30;;;;;;;19.18;100.00;100443.47;4974405;28;20526;-69
2022/05/20 03:58:12;;;;;;;5.75;3.20;;;;;;;19.13;100.00;100440.16;4990652;28;20030;-69
2022/05/20 04:03:24;;;;;;;5.22;3.25;;;;;;;18.86;100.00;100390.63;4973706;28;20033;-69
2022/05/20 04:05:50;;;;;;;6.53;3.55;;;;;;;19.16;100.00;100435.47;4974575;28;20027;-69
2022/05/20 04:08:16;;;;;;;6.60;3.70;;;;;;;19.05;100.00;100420.91;4974183;28;20029;-69
2022/05/20 04:10:41;;;;;;;5.55;3.03;;;;;;;19.12;100.00;100422.28;4974205;28;20035;-69
2022/05/20 04:13:07;;;;;;;6.32;3.50;;;;;;;19.19;100.00;100427.19;4974399;28;20037;-70
2022/05/20 04:15:32;;;;;;;6.85;3.13;;;;;;;19.25;100.00;100440.31;4974736;28;20045;-70
2022/05/20 04:17:58;;;;;;;5.63;3.38;;;;;;;19.25;100.00;100434.91;4971336;28;20023;-70
2022/05/20 04:20:23;;;;;;;6.18;3.88;;;;;;;19.24;100.00;100432.31;4974381;28;20105;-70
2022/05/20 04:22:49;;;;;;;7.88;3.22;;;;;;;19.22;100.00;100434.22;4974688;28;20081;-70
2022/05/20 04:25:15;;;;;;;7.55;3.75;;;;;;;19.18;100.00;100416.50;4974052;28;20368;-70
2022/05/20 04:27:40;;;;;;;5.88;4.03;;;;;;;19.41;100.00;100446.53;4973726;28;20110;-69
2022/05/20 04:30:07;;;;;;;9.60;4.28;;;;;;;19.51;100.00;100442.28;4974092;28;20489;-69
2022/05/20 04:32:32;;;;;;;7.43;4.15;;;;;;;19.50;100.00;100434.28;4974064;28;20130;-71
2022/05/20 04:34:58;;;;;;;7.53;3.90;;;;;;;19.61;100.00;100438.06;4974132;28;20114;-70
2022/05/20 04:37:25;;;;;;;11.43;5.30;;;;;;;19.72;100.00;100440.06;4956604;28;20085;-70
2022/05/20 04:39:51;;;;;;;8.85;4.63;;;;;;;19.76;100.00;100438.03;4973890;28;20386;-70
2022/05/20 04:47:45;;;;;;;8.73;5.00;;;;;;;20.00;100.00;100434.63;4976055;28;20121;-70
2022/05/20 04:50:12;;;;;;;8.85;4.70;;;;;;;20.15;100.00;100452.59;4972401;28;20034;-69
2022/05/20 04:52:37;;;;;;;6.80;4.20;;;;;;;20.20;100.00;100445.06;4976049;28;20470;-69
2022/05/20 04:55:04;;;;;;;11.93;4.50;;;;;;;20.34;100.00;100447.75;4972472;28;20030;-69
2022/05/20 04:57:46;;;;;;;7.35;4.97;;;;;;;20.41;100.00;100449.03;4973577;28;20034;-69
2022/05/20 05:00:25;;;;;;;8.73;4.65;;;;;;;20.47;100.00;100451.38;4973697;28;20037;-69
2022/05/20 05:02:51;;;;;;;7.78;5.00;;;;;;;20.59;100.00;100455.09;4973301;28;20038;-69
2022/05/20 05:05:20;;;;;;;7.05;4.82;;;;;;;20.66;100.00;100441.03;4973550;28;20455;-69
2022/05/20 05:07:49;;;;;;;10.15;5.15;;;;;;;20.72;100.00;100442.47;4972043;28;20031;-69
2022/05/20 05:10:18;;;;;;;8.32;5.22;;;;;;;20.88;100.00;100441.34;4973445;28;20073;-69
2022/05/20 05:12:43;;;;;;;11.00;4.30;;;;;;;20.89;100.00;100443.06;4972541;28;20054;-69
2022/05/20 05:15:11;;;;;;;9.45;5.30;;;;;;;20.99;100.00;100437.91;4973217;28;20030;-69
2022/05/20 05:20:24;;;;;;;8.85;4.38;;;;;;;21.28;100.00;100453.03;4959013;28;20106;-69
2022/05/20 05:22:51;;;;;;;8.23;4.38;;;;;;;21.42;99.95;100462.88;4953648;29;20032;-68
2022/05/20 05:25:18;;;;;;;8.65;4.53;;;;;;;21.54;100.00;100462.03;4970510;28;20031;-69
2022/05/20 05:27:43;;;;;;;8.10;4.32;;;;;;;21.69;99.47;100458.22;4971671;28;20034;-68
2022/05/20 05:30:11;;;;;;;7.72;4.30;;;;;;;21.79;98.43;100456.63;4971742;28;20597;-68
2022/05/20 05:32:38;;;;;;;7.68;4.75;;;;;;;21.99;95.73;100453.38;4971734;28;20054;-69
2022/05/20 05:35:07;;;;;;;8.27;4.20;;;;;;;22.12;94.73;100454.19;4972760;28;20034;-69
2022/05/20 05:37:34;;;;;;;8.60;4.38;;;;;;;22.26;94.59;100455.91;4965508;28;20062;-69
2022/05/20 05:39:59;;;;;;;8.15;4.20;;;;;;;22.38;94.14;100442.31;4951950;29;20030;-69
2022/05/20 05:42:25;;;;;;;7.43;4.82;;;;;;;22.47;93.38;100444.31;4965254;28;20031;-68
2022/05/20 05:44:52;;;;;;;9.80;5.22;;;;;;;22.60;92.27;100447.03;4964960;28;20035;-69
2022/05/20 05:47:18;;;;;;;7.57;4.30;;;;;;;22.67;91.47;100443.72;4953250;28;20055;-69
2022/05/20 05:49:43;;;;;;;7.40;4.90;;;;;;;22.76;91.31;100445.75;4967062;28;20027;-69
2022/05/20 05:52:08;;;;;;;10.75;5.28;;;;;;;22.81;90.99;100448.97;4972416;28;20035;-69
2022/05/20 05:54:35;;;;;;;12.38;4.68;;;;;;;23.05;89.71;100440.78;4970932;28;20026;-69
2022/05/20 05:57:01;;;;;;;8.07;4.28;;;;;;;23.28;88.76;100451.63;4969996;28;20031;-69
2022/05/20 05:59:26;;;;;;;9.02;3.90;;;;;;;23.41;88.85;100449.69;4970148;28;20046;-69
2022/05/20 06:02:00;;;;;;;8.55;4.43;;;;;;;23.51;87.13;100440.84;4970959;28;20064;-69
2022/05/20 06:04:26;;;;;;;10.48;4.43;;;;;;;23.68;86.58;100451.22;4970088;28;20150;-68
2022/05/20 06:06:52;;;;;;;7.93;4.22;;;;;;;23.84;85.42;100446.31;4969448;28;20023;-68
2022/05/20 06:09:18;;;;;;;7.20;4.38;;;;;;;23.88;85.18;100436.91;4954073;28;20058;-68
2022/05/20 06:11:43;;;;;;;7.95;4.10;;;;;;;24.07;83.87;100448.06;4964378;28;20035;-68
2022/05/20 06:14:09;;;;;;;7.68;4.57;;;;;;;24.29;81.79;100453.47;4963095;28;20057;-68
2022/05/20 06:16:34;;;;;;;9.57;4.68;;;;;;;24.53;80.78;100445.97;4949471;29;20059;-68
2022/05/20 06:19:00;;;;;;;9.30;4.50;;;;;;;24.70;79.41;100459.09;4966695;28;20521;-68
2022/05/20 06:21:26;;;;;;;5.65;3.40;;;;;;;24.85;77.31;100457.81;4972170;28;20471;-68
2022/05/20 06:23:52;;;;;;;8.40;4.43;;;;;;;25.01;77.07;100452.78;4971513;28;20437;-68
2022/05/20 06:26:18;;;;;;;7.43;4.63;;;;;;;25.14;76.10;100453.44;4971806;28;20041;-68
2022/05/20 06:28:44;;;;;;;8.23;4.15;;;;;;;25.36;74.62;100457.94;4972109;28;20027;-68
2022/05/20 06:31:09;;;;;;;8.90;4.50;;;;;;;25.57;73.91;100462.41;4971295;28;20181;-68
2022/05/20 06:33:35;;;;;;;8.18;4.25;;;;;;;25.58;72.58;100442.34;4970964;28;20517;-68
2022/05/20 06:41:28;;;;;;;7.05;3.45;;;;;;;26.01;71.32;100461.25;4975703;28;20049;-68
2022/05/20 06:43:54;;;;;;;8.00;3.88;;;;;;;26.30;70.20;100451.31;4975810;28;20027;-68
2022/05/20 06:46:19;;;;;;;10.00;4.10;;;;;;;26.57;68.87;100450.66;4974710;28;20046;-68
2022/05/20 06:48:48;;;;;;;6.43;3.90;;;;;;;26.73;65.93;100453.72;4937647;29;20055;-68
2022/05/20 06:51:19;;;;;;;6.25;3.25;;;;;;;26.80;65.14;100444.81;4953796;28;20033;-67
2022/05/20 06:53:46;;;;;;;8.65;4.22;;;;;;;27.07;65.07;100452.28;4939502;29;20091;-67
2022/05/20 06:56:12;;;;;;;6.97;3.55;;;;;;;27.19;61.65;100448.41;4937216;29;20023;-67
2022/05/20 06:58:38;;;;;;;8.50;3.28;;;;;;;27.40;61.21;100451.03;4937057;29;20487;-67
2022/05/20 07:01:04;;;;;;;7.63;3.28;;;;;;;27.46;60.43;100447.72;4937407;29;20259;-67
2022/05/20 07:03:30;;;;;;;8.77;3.78;;;;;;;27.47;62.18;100449.41;4937068;29;20023;-67
2022/05/20 07:05:56;;;;;;;5.63;3.25;;;;;;;27.67;59.36;100441.03;4937501;29;20028;-67
2022/05/20 07:08:22;;;;;;;5.18;3.38;;;;;;;27.84;59.08;100448.44;4937157;29;20154;-67
2022/05/20 07:10:47;;;;;;;6.60;3.20;;;;;;;27.99;58.38;100447.00;4937242;29;20480;-67
2022/05/20 07:13:13;;;;;;;9.02;3.13;;;;;;;28.25;57.80;100437.06;4937364;29;20110;-67
2022/05/20 07:15:39;;;;;;;7.78;2.90;;;;;;;28.53;57.36;100437.13;4936910;29;20043;-67
2022/05/20 07:18:04;;;;;;;7.07;3.58;;;;;;;28.79;56.30;100435.34;4936828;29;20031;-67
2022/05/20 07:20:30;;;;;;;6.32;3.30;;;;;;;29.09;56.58;100437.72;4936874;29;20035;-67
2022/05/20 07:22:56;;;;;;;5.82;3.25;;;;;;;29.31;53.79;100426.25;4936849;29;20028;-67
2022/05/20 07:25:21;;;;;;;6.32;3.30;;;;;;;29.59;52.33;100430.56;4936694;29;20023;-67
2022/05/20 07:27:47;;;;;;;5.97;3.05;;;;;;;29.89;52.10;100427.38;4936712;29;20114;-67
2022/05/20 07:30:15;;;;;;;12.35;4.35;;;;;;;30.34;50.62;100427.97;4936548;29;20611;-67
2022/05/20 07:32:41;;;;;;;8.63;3.25;;;;;;;30.66;48.78;100422.56;4936764;29;20472;-67
2022/05/20 07:35:09;;;;;;;4.55;3.15;;;;;;;30.87;48.64;100420.22;4935764;29;20035;-67
2022/05/20 07:37:35;;;;;;;6.35;3.50;;;;;;;31.00;48.96;100413.38;4935250;29;20062;-67
2022/05/20 07:40:00;;;;;;;7.15;2.95;;;;;;;31.18;48.23;100416.84;4935077;29;20031;-67
2022/05/20 07:42:26;;;;;;;7.03;3.28;;;;;;;31.24;47.41;100410.63;4935234;29;20538;-67
2022/05/20 07:44:51;;;;;;;5.20;3.30;;;;;;;31.28;48.34;100417.53;4935331;29;20027;-67
2022/05/20 07:47:18;;;;;;;5.32;2.90;;;;;;;31.66;46.23;100416.84;4945426;28;20050;-67
2022/05/20 07:49:43;;;;;;;5.63;3.90;;;;;;;32.05;46.71;100415.03;4973599;28;20066;-67
2022/05/20 07:52:11;;;;;;;7.07;2.92;;;;;;;32.62;45.70;100422.00;4972438;28;20070;-67
2022/05/20 07:54:42;;;;;;;8.73;3.00;;;;;;;33.07;44.67;100415.72;4973264;28;20026;-67
2022/05/20 07:57:13;;;;;;;4.53;2.63;;;;;;;33.33;43.47;100422.56;4973093;28;20038;-67
2022/05/20 07:59:49;;;;;;;4.90;3.00;;;;;;;33.35;42.01;100419.63;4976120;28;20030;-67
2022/05/20 08:02:19;;;;;;;8.60;2.95;;;;;;;33.47;45.87;100420.06;4974677;28;20023;-66
2022/05/20 08:05:01;;;;;;;4.20;2.85;;;;;;;33.88;43.48;100418.59;4974510;28;20031;-66
2022/05/20 08:07:32;;;;;;;4.40;2.40;;;;;;;33.96;41.28;100418.53;4974664;28;20022;-67
2022/05/20 08:10:04;;;;;;;8.57;2.80;;;;;;;34.12;39.43;100412.84;4971699;28;20030;-67
2022/05/20 08:12:29;;;;;;;6.55;2.45;;;;;;;34.08;39.12;100422.53;4957877;28;20533;-66
2022/05/20 08:14:55;;;;;;;4.63;2.50;;;;;;;33.81;39.72;100420.38;4972424;28;20033;-66
2022/05/20 08:17:24;;;;;;;9.10;2.92;;;;;;;33.77;39.64;100413.56;4972937;28;20154;-66
2022/05/20 08:19:51;;;;;;;11.23;2.83;;;;;;;33.60;38.82;100410.09;4973090;28;20057;-66
2022/05/20 08:22:22;;;;;;;6.88;2.60;;;;;;;33.69;39.11;100399.84;4972898;28;20496;-67
2022/05/20 08:24:52;;;;;;;4.93;2.58;;;;;;;33.60;39.00;100400.94;4972728;28;20030;-67
2022/05/20 08:27:22;;;;;;;4.97;2.65;;;;;;;33.44;38.62;100407.50;4973335;28;20536;-67
2022/05/20 08:29:48;;;;;;;5.20;2.90;;;;;;;33.77;39.89;100402.50;4974092;28;20347;-67
2022/05/20 08:32:15;;;;;;;4.22;3.20;;;;;;;33.84;38.37;100398.78;4974169;28;20027;-67
2022/05/20 08:34:41;;;;;;;6.55;2.75;;;;;;;34.02;39.20;100406.75;4972469;28;20041;-67
2022/05/20 08:37:07;;;;;;;9.57;2.85;;;;;;;33.87;39.10;100403.09;4974107;28;20026;-66
2022/05/20 08:39:32;;;;;;;4.78;2.38;;;;;;;33.92;38.28;100403.41;4973711;28;20054;-66
2022/05/20 08:41:57;;;;;;;7.05;2.70;;;;;;;33.78;37.49;100394.03;4972588;28;20110;-66
2022/05/20 08:44:24;;;;;;;6.10;2.50;;;;;;;33.70;38.81;100390.50;4972232;28;20039;-66
2022/05/20 08:46:50;;;;;;;6.95;3.25;;;;;;;34.02;38.63;100390.19;4972095;28;20060;-66
2022/05/20 08:49:21;;;;;;;7.72;3.03;;;;;;;34.20;36.81;100382.34;4972156;28;20122;-66
2022/05/20 08:51:52;;;;;;;3.95;2.25;;;;;;;34.29;37.00;100378.41;4972109;28;20073;-67
2022/05/20 08:54:19;;;;;;;4.10;2.60;;;;;;;34.46;36.31;100375.28;4972124;28;20448;-67
2022/05/20 08:56:46;;;;;;;6.07;2.85;;;;;;;34.93;36.33;100372.00;4973347;28;20085;-67
2022/05/20 08:59:17;;;;;;;5.57;2.40;;;;;;;34.83;35.51;100368.66;4976178;28;20041;-67
2022/05/20 09:01:46;;;;;;;9.60;2.90;;;;;;;35.00;35.80;100372.91;4976356;28;20027;-66
2022/05/20 09:04:14;;;;;;;5.03;2.67;;;;;;;35.15;35.00;100362.63;4973181;28;20073;-66
2022/05/20 09:07:02;;;;;;;7.00;2.30;;;;;;;35.25;35.87;100341.03;4973411;28;20046;-66
2022/05/20 09:09:47;;;;;;;7.25;2.67;;;;;;;35.50;34.71;100345.06;4973539;28;20395;-66
2022/05/20 09:12:31;;;;;;;4.35;2.17;;;;;;;35.65;34.10;100364.34;4973109;28;20038;-66
2022/05/20 09:17:46;;;;;;;6.07;2.30;;;;;;;35.85;33.15;100350.63;4959618;28;20491;-66
2022/05/20 09:20:16;;;;;;;6.88;2.47;;;;;;;35.72;33.66;100338.41;4952334;29;20030;-66
2022/05/20 09:22:54;;;;;;;4.38;2.13;;;;;;;35.85;33.06;100342.31;4952405;29;20039;-67
2022/05/20 09:25:24;;;;;;;4.18;1.95;;;;;;;35.83;33.53;100333.34;4969780;28;20034;-66
2022/05/20 09:27:51;;;;;;;5.18;2.13;;;;;;;36.15;32.09;100332.69;4971667;28;20113;-66
2022/05/20 09:30:23;;;;;;;5.60;1.92;;;;;;;36.19;33.12;100333.97;4972265;28;20018;-66
2022/05/20 09:33:12;;;;;;;4.50;2.20;;;;;;;36.28;32.57;100335.53;4955600;28;20085;-66
2022/05/20 09:35:37;;;;;;;3.95;2.10;;;;;;;36.44;33.54;100336.00;4972258;28;20466;-66
2022/05/20 09:38:29;;;;;;;4.90;2.05;;;;;;;36.62;33.56;100352.06;4971638;28;20089;-66
2022/05/20 09:40:54;;;;;;;7.07;2.00;;;;;;;36.67;30.90;100357.84;4962376;28;20124;-66
2022/05/20 09:43:27;;;;;;;6.07;1.95;;;;;;;36.22;32.25;100350.19;4971165;28;20059;-67
2022/05/20 09:45:53;;;;;;;5.75;2.20;;;;;;;36.59;31.84;100335.88;4954054;28;20035;-67
2022/05/20 09:48:47;;;;;;;4.72;2.10;;;;;;;36.87;32.10;100339.38;4971294;28;20057;-67
2022/05/20 09:51:15;;;;;;;5.88;2.33;;;;;;;37.17;32.19;100334.28;4971110;28;20486;-67
2022/05/20 09:53:44;;;;;;;4.10;2.28;;;;;;;37.27;30.70;100324.47;4971005;28;20058;-67
2022/05/20 09:56:30;;;;;;;3.22;1.80;;;;;;;37.29;31.88;100324.25;4971130;28;20034;-67
2022/05/20 09:59:44;;;;;;;5.82;2.05;;;;;;;37.14;30.23;100329.97;4971496;28;20023;-68
2022/05/20 10:02:28;;;;;;;3.78;1.80;;;;;;;36.93;30.77;100313.56;4956347;28;20397;-67
2022/05/20 10:05:00;;;;;;;5.85;2.53;;;;;;;36.99;30.94;100326.56;4972464;28;20027;-67
2022/05/20 10:07:47;;;;;;;10.80;2.83;;;;;;;37.66;31.91;100318.00;4972481;28;20023;-67
2022/05/20 10:10:20;;;;;;;4.05;2.08;;;;;;;36.42;32.46;100317.91;4969201;28;20046;-67
2022/05/20 10:12:50;;;;;;;6.85;2.38;;;;;;;36.13;32.61;100318.19;4972372;28;20110;-67
2022/05/20 10:15:29;;;;;;;4.65;2.38;;;;;;;35.58;33.73;100316.38;4971141;28;20026;-67
2022/05/20 10:18:35;;;;;;;4.47;2.50;;;;;;;35.09;33.44;100310.84;4956656;28;20058;-67
2022/05/20 10:21:03;;;;;;;5.90;2.08;;;;;;;34.75;33.74;100310.72;4951484;29;20470;-68
2022/05/20 10:23:48;;;;;;;4.60;2.13;;;;;;;35.34;35.13;100305.75;4953853;28;20109;-68
2022/05/20 10:26:13;;;;;;;5.97;2.25;;;;;;;35.93;32.25;100297.88;4970322;28;20027;-68
2022/05/20 10:34:31;;;;;;;5.47;2.08;;;;;;;35.88;30.81;100247.78;4972504;28;20053;-68
2022/05/20 10:37:01;;;;;;;3.95;1.77;;;;;;;35.33;31.47;100238.50;4972226;28;20027;-68
2022/05/20 10:40:06;;;;;;;4.18;2.20;;;;;;;34.88;30.90;100203.03;4954770;28;20500;-68
2022/05/20 10:42:49;;;;;;;7.15;2.13;;;;;;;34.66;32.80;100190.31;4942735;28;20043;-68
2022/05/20 10:48:37;;;;;;;5.03;2.03;;;;;;;34.12;34.23;100170.66;4971798;28;20094;-68
2022/05/20 10:51:40;;;;;;;4.13;2.35;;;;;;;33.72;33.79;100178.66;4988907;28;20026;-68
2022/05/20 10:54:30;;;;;;;4.65;2.00;;;;;;;33.55;35.33;100185.44;4977179;28;20101;-68
2022/05/20 10:57:26;;;;;;;3.70;2.00;;;;;;;33.85;33.92;100157.59;4952559;29;20046;-68
2022/05/20 11:00:00;;;;;;;8.50;2.00;;;;;;;33.98;33.39;100140.34;4952620;29;20031;-68
2022/05/20 11:02:43;;;;;;;5.95;2.45;;;;;;;34.12;32.94;100133.91;4952438;29;20038;-67
2022/05/20 11:05:39;;;;;;;6.05;2.40;;;;;;;34.61;33.45;100132.03;4952585;29;20598;-67
2022/05/20 11:08:19;;;;;;;3.80;1.77;;;;;;;35.33;32.62;100125.03;4960086;28;20029;-67
2022/05/20 11:11:13;;;;;;;4.85;1.80;;;;;;;36.35;31.16;100128.56;4971726;28;20406;-68
2022/05/20 11:14:10;;;;;;;4.43;1.80;;;;;;;36.44;31.00;100130.06;4971587;28;20038;-68
2022/05/20 11:17:10;;;;;;;6.60;2.10;;;;;;;37.06;29.78;100127.66;4967933;28;20130;-67
2022/05/20 11:19:56;;;;;;;3.55;1.75;;;;;;;37.63;29.35;100119.34;4874597;29;20036;-67
2022/05/20 11:22:35;;;;;;;7.18;1.73;;;;;;;37.97;28.71;100126.44;4947121;29;20047;-68
2022/05/20 11:25:03;;;;;;;3.15;1.85;;;;;;;37.91;28.98;100114.28;4967446;28;20394;-68
2022/05/20 11:27:56;;;;;;;3.47;1.88;;;;;;;37.90;30.10;100120.94;4974696;28;20038;-68
2022/05/20 11:30:34;;;;;;;4.35;1.58;;;;;;;37.67;29.52;100115.06;4974107;28;20537;-68
2022/05/20 11:33:15;;;;;;;4.10;1.80;;;;;;;37.60;29.32;100099.50;4973105;28;20026;-68
2022/05/20 11:36:25;;;;;;;5.50;2.05;;;;;;;37.22;28.74;100104.97;4973384;28;20018;-68
2022/05/20 11:39:09;;;;;;;6.57;4.00;;;;;;;37.59;29.67;100095.88;4969164;28;20486;-67
2022/05/20 11:42:11;;;;;;;5.15;2.40;;;;;;;38.10;28.74;100095.78;4973482;28;20094;-67
2022/05/20 11:45:10;;;;;;;7.20;1.80;;;;;;;38.00;28.06;100079.63;4956496;28;20380;-68
2022/05/20 11:47:41;;;;;;;8.45;1.73;;;;;;;38.63;28.69;100074.00;4974653;28;20058;-69
2022/05/20 11:50:13;;;;;;;6.20;2.00;;;;;;;38.98;28.39;100064.00;4975099;28;20517;-68
2022/05/20 11:52:49;;;;;;;5.60;2.13;;;;;;;39.27;28.67;100061.28;4974889;28;20391;-69
2022/05/20 11:55:24;;;;;;;6.57;3.15;;;;;;;39.55;28.63;100060.72;4974917;28;20081;-68
2022/05/20 11:58:00;;;;;;;6.32;2.17;;;;;;;40.29;26.83;100058.31;4974747;28;20031;-68
2022/05/20 12:00:26;;;;;;;7.13;1.95;;;;;;;40.47;27.29;100051.78;4974900;28;20026;-68
2022/05/20 12:02:56;;;;;;;3.95;2.13;;;;;;;39.93;26.69;100041.75;4976553;28;20131;-68
2022/05/20 12:05:25;;;;;;;7.15;2.10;;;;;;;40.00;28.95;100038.84;4973437;28;20034;-68
2022/05/20 12:07:51;;;;;;;4.75;2.10;;;;;;;40.34;26.59;100041.72;4974467;28;20504;-68
2022/05/20 12:10:31;;;;;;;5.97;2.13;;;;;;;40.42;26.41;100023.75;4974137;28;20027;-68
2022/05/20 12:13:24;;;;;;;5.00;1.90;;;;;;;40.56;27.20;100012.09;4974611;28;20062;-68
2022/05/20 12:16:13;;;;;;;6.38;1.98;;;;;;;40.13;26.80;100007.97;4966543;28;20061;-68